Time;durP1;ratioP1;P1;durP2;ratioP2;P2;SDS_P1;SDS_P2;PMS_P1;PMS_P2;Temp;Humidity;BMP_temperature;BMP_pressure;BME280_temperature;BME280_humidity;BME280_pressure;Samples;Min_cycle;Max_cycle;Signal;HPM_P1;HPM_P2
2021/01/14 00:01:10;;;;;;;1.77;1.20;;;;;;;;;;4133020;28;20029;-68
2021/01/14 00:03:13;;;;;;;1.90;1.27;;;;;;;;;;4129588;28;20068;-69
2021/01/14 00:05:15;;;;;;;3.28;1.45;;;;;;;;;;4132926;28;20033;-71
2021/01/14 00:07:17;;;;;;;1.50;1.30;;;;;;;;;;4132101;28;20045;-67
2021/01/14 00:09:19;;;;;;;2.63;1.30;;;;;;;;;;4130596;28;20161;-69
2021/01/14 00:11:21;;;;;;;2.67;1.40;;;;;;;;;;4129943;28;20466;-69
2021/01/14 00:13:23;;;;;;;1.75;1.10;;;;;;;;;;4133945;28;20091;-66
2021/01/14 00:15:25;;;;;;;1.70;1.42;;;;;;;;;;4131264;28;20038;-66
2021/01/14 00:17:28;;;;;;;2.25;1.60;;;26.40;53.80;;;;;;4131838;28;20045;-64
2021/01/14 00:19:30;;;;;;;1.30;1.20;;;25.80;54.10;;;;;;4131174;28;20107;-68
2021/01/14 00:21:38;;;;;;;2.05;1.52;;;25.70;54.10;;;;;;4135605;28;20751;-66
2021/01/14 00:23:41;;;;;;;2.95;1.60;;;25.60;54.70;;;;;;4134639;28;20034;-64
2021/01/14 00:25:43;;;;;;;6.28;1.52;;;25.50;54.30;;;;;;4134082;28;20088;-68
2021/01/14 00:27:45;;;;;;;3.00;1.65;;;25.50;54.60;;;;;;4136166;28;20060;-69
2021/01/14 00:29:47;;;;;;;1.80;1.47;;;25.40;54.60;;;;;;4131950;28;20132;-66
2021/01/14 00:31:49;;;;;;;2.50;1.60;;;;;;;;;;4136999;28;20276;-63
2021/01/14 00:33:51;;;;;;;2.00;1.35;;;;;;;;;;4136307;28;20597;-63
2021/01/14 00:35:53;;;;;;;2.53;1.60;;;;;;;;;;4135038;28;20044;-63
2021/01/14 00:37:56;;;;;;;1.70;1.45;;;;;;;;;;4136747;28;20038;-64
2021/01/14 00:39:58;;;;;;;2.80;2.03;;;;;;;;;;4132405;28;20074;-63
2021/01/14 00:42:00;;;;;;;5.35;2.10;;;;;;;;;;4137466;28;20066;-65
2021/01/14 00:44:02;;;;;;;3.47;1.67;;;;;;;;;;4135659;28;20119;-61
2021/01/14 00:46:04;;;;;;;12.75;2.30;;;;;;;;;;4134539;28;20498;-66
2021/01/14 00:48:06;;;;;;;5.05;2.25;;;;;;;;;;4133420;28;20033;-60
2021/01/14 00:50:08;;;;;;;3.65;1.80;;;;;;;;;;4131372;28;20033;-68
2021/01/14 00:52:11;;;;;;;2.50;1.85;;;;;;;;;;4133724;28;20034;-68
2021/01/14 00:54:13;;;;;;;3.10;1.93;;;;;;;;;;4136444;28;20029;-64
2021/01/14 00:56:15;;;;;;;2.63;1.67;;;;;;;;;;4134085;28;20587;-62
2021/01/14 00:58:17;;;;;;;2.85;1.70;;;;;;;;;;4133933;28;20049;-64
2021/01/14 01:00:20;;;;;;;3.83;1.85;;;;;;;;;;4134072;28;20142;-64
2021/01/14 01:02:21;;;;;;;;;;;;;;;;;;4136436;28;20045;-66
2021/01/14 01:04:23;;;;;;;2.85;1.85;;;;;;;;;;4133441;28;20295;-64
2021/01/14 01:06:32;;;;;;;2.70;1.88;;;;;;;;;;4135351;28;20435;-64
2021/01/14 01:08:34;;;;;;;2.33;1.70;;;;;;;;;;4131933;28;20399;-64
2021/01/14 01:10:36;;;;;;;5.00;1.88;;;;;;;;;;4132368;28;21276;-64
2021/01/14 01:12:38;;;;;;;2.17;1.65;;;25.30;54.70;;;;;;4129378;28;20030;-64
2021/01/14 01:14:40;;;;;;;2.30;1.80;;;25.00;57.90;;;;;;4129025;28;20034;-68
2021/01/14 01:16:42;;;;;;;3.55;1.90;;;;;;;;;;4130502;28;20030;-65
2021/01/14 01:18:44;;;;;;;3.58;1.85;;;;;;;;;;4133562;28;20042;-66
2021/01/14 01:20:46;;;;;;;3.80;1.80;;;;;;;;;;4133667;28;20209;-65
2021/01/14 01:22:49;;;;;;;2.88;2.03;;;;;;;;;;4130701;28;20129;-68
2021/01/14 01:24:52;;;;;;;3.27;2.10;;;25.00;57.30;;;;;;4137550;28;20030;-59
2021/01/14 01:26:54;;;;;;;4.55;2.03;;;25.00;59.10;;;;;;4133612;28;20042;-65
2021/01/14 01:28:56;;;;;;;4.30;2.25;;;25.10;60.60;;;;;;4133025;28;20615;-67
2021/01/14 01:30:59;;;;;;;2.75;2.10;;;25.10;59.30;;;;;;4137484;28;20026;-69
2021/01/14 01:33:01;;;;;;;3.13;2.20;;;25.10;58.30;;;;;;4133762;28;20025;-68
2021/01/14 01:35:04;;;;;;;3.20;2.00;;;25.00;58.70;;;;;;4136473;28;20042;-64
2021/01/14 01:37:06;;;;;;;3.67;2.40;;;25.00;57.90;;;;;;4134272;28;20113;-69
2021/01/14 01:39:08;;;;;;;3.00;2.20;;;24.90;57.90;;;;;;4137463;28;20104;-65
2021/01/14 01:41:10;;;;;;;3.50;2.10;;;24.90;58.40;;;;;;4133475;28;20693;-64
2021/01/14 01:43:12;;;;;;;2.50;2.10;;;24.90;59.00;;;;;;4136846;28;20046;-63
2021/01/14 01:45:15;;;;;;;3.63;2.25;;;25.00;59.50;;;;;;4138921;28;20026;-64
2021/01/14 01:47:18;;;;;;;3.10;2.10;;;25.10;61.80;;;;;;4136297;28;20055;-67
2021/01/14 01:49:19;;;;;;;;;;;25.20;60.20;;;;;;4133213;28;20135;-66
2021/01/14 01:51:23;;;;;;;2.78;2.30;;;25.20;59.40;;;;;;4136392;28;19917;-68
2021/01/14 01:53:25;;;;;;;;;;;25.10;58.50;;;;;;4137740;28;20049;-63
2021/01/14 01:55:27;;;;;;;3.50;2.30;;;25.00;58.60;;;;;;4139613;28;20390;-64
2021/01/14 01:57:30;;;;;;;2.60;2.00;;;25.00;58.40;;;;;;4134078;28;20050;-63
2021/01/14 01:59:33;;;;;;;3.20;2.30;;;24.90;58.40;;;;;;4133616;28;20115;-66
2021/01/14 02:01:40;;;;;;;2.85;2.10;;;24.90;59.20;;;;;;4135828;28;22117;-65
2021/01/14 02:03:42;;;;;;;3.20;2.30;;;;;;;;;;4137368;28;20186;-65
2021/01/14 02:05:44;;;;;;;2.83;2.22;;;;;;;;;;4136603;28;20037;-64
2021/01/14 02:08:12;;;;;;;2.97;2.30;;;;;;;;;;4133675;28;20484;-66
2021/01/14 02:10:30;;;;;;;3.53;2.50;;;;;;;;;;4126163;28;20077;-66
2021/01/14 02:12:33;;;;;;;3.42;2.22;;;;;;;;;;4136486;28;20022;-61
2021/01/14 02:14:40;;;;;;;2.83;2.08;;;25.00;60.30;;;;;;4134821;28;20356;-66
2021/01/14 02:16:50;;;;;;;2.55;1.92;;;25.10;58.00;;;;;;4131646;28;20030;-65
2021/01/14 02:18:56;;;;;;;2.95;2.33;;;25.00;58.70;;;;;;4133395;28;20246;-68
2021/01/14 02:21:06;;;;;;;3.10;2.00;;;24.90;58.70;;;;;;4130315;28;20980;-66
2021/01/14 02:23:33;;;;;;;4.70;2.15;;;24.90;58.80;;;;;;4133329;28;20546;-62
2021/01/14 02:26:04;;;;;;;3.70;2.28;;;24.90;59.60;;;;;;4131024;28;20034;-62
2021/01/14 02:28:06;;;;;;;3.65;2.38;;;;;;;;;;4133665;28;20463;-66
2021/01/14 02:30:12;;;;;;;3.03;2.35;;;;;;;;;;4137648;28;20185;-65
2021/01/14 02:32:17;;;;;;;3.55;2.58;;;;;;;;;;4135420;28;20040;-72
2021/01/14 02:34:19;;;;;;;3.65;2.67;;;;;;;;;;4132761;28;20052;-68
2021/01/14 02:36:22;;;;;;;3.40;2.20;;;;;;;;;;4137296;28;20117;-67
2021/01/14 02:38:24;;;;;;;2.97;2.13;;;25.00;59.80;;;;;;4133492;28;20096;-67
2021/01/14 02:40:26;;;;;;;2.55;2.03;;;25.20;59.40;;;;;;4136028;28;20110;-66
2021/01/14 02:42:28;;;;;;;3.00;2.00;;;25.10;59.50;;;;;;4136533;28;20061;-69
2021/01/14 02:44:31;;;;;;;3.75;2.22;;;25.10;59.30;;;;;;4134229;28;20038;-67
2021/01/14 02:46:33;;;;;;;2.40;1.90;;;25.00;59.40;;;;;;4133211;28;20052;-68
2021/01/14 02:49:03;;;;;;;3.13;2.30;;;25.00;59.40;;;;;;4135049;28;20032;-63
2021/01/14 02:51:31;;;;;;;3.20;2.33;;;24.90;59.20;;;;;;4129780;28;20108;-68
2021/01/14 02:53:35;;;;;;;2.72;2.25;;;24.90;59.20;;;;;;4132917;28;20053;-66
2021/01/14 02:55:40;;;;;;;2.88;2.30;;;25.00;60.30;;;;;;4134247;28;20045;-64
2021/01/14 02:57:46;;;;;;;2.63;1.95;;;25.00;60.60;;;;;;4133501;28;20036;-70
2021/01/14 02:59:48;;;;;;;3.17;2.10;;;25.20;62.00;;;;;;4134861;28;20219;-66
2021/01/14 03:01:50;;;;;;;2.92;2.20;;;25.30;61.60;;;;;;4130592;28;20058;-69
2021/01/14 03:03:52;;;;;;;3.53;2.28;;;25.40;60.30;;;;;;4134743;28;20084;-68
2021/01/14 03:05:54;;;;;;;4.00;2.30;;;25.30;59.70;;;;;;4134810;28;20116;-70
2021/01/14 03:07:56;;;;;;;2.78;2.30;;;25.30;59.50;;;;;;4136591;28;20120;-67
2021/01/14 03:09:58;;;;;;;2.75;2.25;;;25.20;59.30;;;;;;4130000;28;20052;-71
2021/01/14 03:12:00;;;;;;;5.57;2.20;;;25.20;59.50;;;;;;4135108;28;20030;-65
2021/01/14 03:14:02;;;;;;;3.40;2.50;;;25.20;59.40;;;;;;4131498;28;20045;-71
2021/01/14 03:16:07;;;;;;;2.53;2.00;;;25.10;59.30;;;;;;4134123;28;20428;-65
2021/01/14 03:18:11;;;;;;;2.42;1.92;;;25.10;59.20;;;;;;4137304;28;20068;-68
2021/01/14 03:20:14;;;;;;;3.17;2.30;;;25.10;59.10;;;;;;4133912;28;20037;-65
2021/01/14 03:22:16;;;;;;;3.40;2.35;;;25.00;59.10;;;;;;4139586;28;20045;-69
2021/01/14 03:24:18;;;;;;;2.88;2.10;;;25.00;59.00;;;;;;4134305;28;20522;-65
2021/01/14 03:26:21;;;;;;;5.35;2.28;;;25.00;59.00;;;;;;4133347;28;20061;-61
2021/01/14 03:28:22;;;;;;;;;;;25.00;59.20;;;;;;4135984;28;20037;-63
2021/01/14 03:30:25;;;;;;;6.10;2.60;;;24.90;59.00;;;;;;4133373;28;19982;-67
2021/01/14 03:32:27;;;;;;;2.80;2.20;;;24.90;59.20;;;;;;4132954;28;20053;-65
2021/01/14 03:34:30;;;;;;;2.90;2.20;;;24.90;59.40;;;;;;4135401;28;20042;-63
2021/01/14 03:36:32;;;;;;;3.15;2.28;;;24.90;59.30;;;;;;4134693;28;20601;-64
2021/01/14 03:38:38;;;;;;;2.78;1.85;;;24.90;59.30;;;;;;4132138;28;20461;-63
2021/01/14 03:40:40;;;;;;;3.72;2.10;;;24.80;59.10;;;;;;4133131;28;20041;-63
2021/01/14 03:42:42;;;;;;;4.22;2.15;;;24.80;59.10;;;;;;4135411;28;20574;-64
2021/01/14 03:44:44;;;;;;;2.75;2.30;;;24.90;59.10;;;;;;4133362;28;20051;-61
2021/01/14 03:46:47;;;;;;;4.05;2.30;;;24.80;59.20;;;;;;4126114;28;20084;-59
2021/01/14 03:48:49;;;;;;;;;;;24.80;59.20;;;;;;4136532;28;20049;-58
2021/01/14 03:50:51;;;;;;;3.75;2.10;;;24.80;59.30;;;;;;4127482;28;19996;-58
2021/01/14 03:52:53;;;;;;;3.60;2.60;;;24.80;59.40;;;;;;4132534;28;20550;-62
2021/01/14 03:54:55;;;;;;;6.13;2.60;;;24.80;59.90;;;;;;4128057;28;20030;-66
2021/01/14 03:56:57;;;;;;;2.95;2.30;;;24.80;59.60;;;;;;4135332;28;20366;-61
2021/01/14 03:58:59;;;;;;;3.10;2.10;;;24.80;59.40;;;;;;4129985;28;20122;-66
2021/01/14 04:01:03;;;;;;;3.22;2.40;;;24.80;59.70;;;;;;4132161;28;20112;-64
2021/01/14 04:03:05;;;;;;;3.25;2.20;;;24.80;59.60;;;;;;4130397;28;20381;-63
2021/01/14 04:05:09;;;;;;;2.05;1.85;;;24.80;59.50;;;;;;4134403;28;20338;-64
2021/01/14 04:07:12;;;;;;;2.10;1.90;;;24.80;59.70;;;;;;4130208;28;20041;-65
2021/01/14 04:09:14;;;;;;;3.55;2.20;;;24.80;59.80;;;;;;4132575;28;20180;-69
2021/01/14 04:11:17;;;;;;;2.80;2.00;;;24.80;59.70;;;;;;4133029;28;20049;-65
2021/01/14 04:13:19;;;;;;;3.65;2.28;;;24.80;60.10;;;;;;4125945;28;20654;-63
2021/01/14 04:15:21;;;;;;;2.75;2.15;;;24.80;59.60;;;;;;4132731;28;20400;-66
2021/01/14 04:17:23;;;;;;;2.97;1.95;;;24.80;59.50;;;;;;4130463;28;20121;-65
2021/01/14 04:19:25;;;;;;;2.97;2.22;;;24.80;59.40;;;;;;4130283;28;20046;-63
2021/01/14 04:21:27;;;;;;;3.28;2.20;;;24.80;59.40;;;;;;4133120;28;20092;-67
2021/01/14 04:23:29;;;;;;;2.20;2.00;;;24.80;59.40;;;;;;4130824;28;20057;-64
2021/01/14 04:25:32;;;;;;;3.75;2.10;;;24.80;59.30;;;;;;4135289;28;20394;-62
2021/01/14 04:27:34;;;;;;;2.42;1.90;;;24.80;59.20;;;;;;4132810;28;20083;-63
2021/01/14 04:29:36;;;;;;;2.83;2.05;;;24.80;59.30;;;;;;4132027;28;20050;-68
2021/01/14 04:31:38;;;;;;;3.13;2.15;;;24.80;59.40;;;;;;4133987;28;20100;-63
2021/01/14 04:33:40;;;;;;;4.25;2.10;;;24.80;59.30;;;;;;4132702;28;20088;-65
2021/01/14 04:35:50;;;;;;;3.17;2.00;;;24.80;59.20;;;;;;4132092;28;20061;-65
2021/01/14 04:37:52;;;;;;;3.08;1.80;;;24.80;59.20;;;;;;4129228;28;20051;-61
2021/01/14 04:39:54;;;;;;;3.20;2.22;;;24.80;59.20;;;;;;4130174;28;20412;-59
2021/01/14 04:41:58;;;;;;;4.20;2.22;;;24.80;59.70;;;;;;4131777;28;20500;-64
2021/01/14 04:44:01;;;;;;;3.47;2.25;;;24.90;59.20;;;;;;4133166;28;20042;-66
2021/01/14 04:46:05;;;;;;;3.92;2.30;;;24.90;59.10;;;;;;4133344;28;20025;-65
2021/01/14 04:48:11;;;;;;;2.58;2.00;;;24.90;59.00;;;;;;4128094;28;20030;-64
2021/01/14 04:50:14;;;;;;;2.58;2.10;;;24.90;59.10;;;;;;4132165;28;20053;-63
2021/01/14 04:52:17;;;;;;;2.97;2.20;;;24.90;59.10;;;;;;4132453;28;20141;-63
2021/01/14 04:54:22;;;;;;;;;;;24.90;59.10;;;;;;4133884;28;20036;-63
2021/01/14 04:56:28;;;;;;;4.28;2.35;;;24.90;59.40;;;;;;4131080;28;20072;-65
2021/01/14 04:58:30;;;;;;;3.50;2.42;;;24.90;59.40;;;;;;4131213;28;20045;-63
2021/01/14 05:00:35;;;;;;;3.45;2.28;;;24.90;59.60;;;;;;4131491;28;20243;-61
2021/01/14 05:02:52;;;;;;;2.60;2.10;;;25.00;59.60;;;;;;4131595;28;20156;-62
2021/01/14 05:04:55;;;;;;;4.95;2.10;;;25.00;59.50;;;;;;4129175;28;20038;-64
2021/01/14 05:06:58;;;;;;;2.03;1.88;;;25.00;59.50;;;;;;4128535;28;20479;-63
2021/01/14 05:09:04;;;;;;;;;;;25.00;59.30;;;;;;4128896;28;20495;-60
2021/01/14 05:11:11;;;;;;;2.03;1.80;;;25.00;59.30;;;;;;4127903;28;19917;-61
2021/01/14 05:13:13;;;;;;;3.13;2.20;;;25.10;59.10;;;;;;4127097;28;20036;-62
2021/01/14 05:15:16;;;;;;;3.08;2.40;;;25.10;59.10;;;;;;4128229;28;20036;-62
2021/01/14 05:17:18;;;;;;;2.63;2.00;;;25.10;59.30;;;;;;4127708;28;20045;-65
2021/01/14 05:19:21;;;;;;;2.30;2.00;;;25.10;59.00;;;;;;4125389;28;20048;-63
2021/01/14 05:21:24;;;;;;;3.05;2.20;;;25.10;58.80;;;;;;4124831;28;20034;-61
2021/01/14 05:23:28;;;;;;;3.55;2.20;;;25.10;58.80;;;;;;4124270;28;20050;-68
2021/01/14 05:25:31;;;;;;;2.67;2.10;;;25.10;58.80;;;;;;4128722;28;20539;-60
2021/01/14 05:27:34;;;;;;;2.38;2.05;;;25.10;58.80;;;;;;4129233;28;20448;-65
2021/01/14 05:29:36;;;;;;;3.17;2.00;;;25.10;58.70;;;;;;4130894;28;20482;-64
2021/01/14 05:31:38;;;;;;;2.97;2.10;;;25.10;58.80;;;;;;4124740;28;20189;-65
2021/01/14 05:33:41;;;;;;;2.20;1.92;;;25.20;58.70;;;;;;4130953;28;20088;-62
2021/01/14 05:35:47;;;;;;;2.45;2.00;;;25.20;58.50;;;;;;4127932;28;20033;-62
2021/01/14 05:37:49;;;;;;;2.95;1.95;;;25.20;58.40;;;;;;4124791;28;20049;-62
2021/01/14 05:39:52;;;;;;;4.65;2.05;;;25.20;58.40;;;;;;4131104;28;20041;-64
2021/01/14 05:41:55;;;;;;;3.45;1.98;;;25.20;58.10;;;;;;4111713;28;20054;-61
2021/01/14 05:44:04;;;;;;;3.58;2.10;;;25.20;57.50;;;;;;4117208;28;20550;-65
2021/01/14 05:46:17;;;;;;;2.90;2.10;;;25.30;57.00;;;;;;4128966;28;20022;-61
2021/01/14 05:48:19;;;;;;;2.85;2.00;;;25.20;57.10;;;;;;4131386;28;20030;-57
2021/01/14 05:50:31;;;;;;;3.22;2.20;;;25.20;56.70;;;;;;4129065;28;20116;-60
2021/01/14 05:52:34;;;;;;;2.28;2.03;;;25.30;57.30;;;;;;4130710;28;20053;-60
2021/01/14 05:54:36;;;;;;;;;;;25.20;56.90;;;;;;4130380;28;20479;-60
2021/01/14 05:56:43;;;;;;;3.83;2.30;;;25.30;56.40;;;;;;4133818;28;19914;-60
2021/01/14 05:58:47;;;;;;;3.65;2.10;;;25.30;55.80;;;;;;4128957;28;20042;-61
2021/01/14 06:00:49;;;;;;;3.22;1.90;;;25.20;55.50;;;;;;4132189;28;20338;-64
2021/01/14 06:02:52;;;;;;;4.65;2.10;;;25.30;55.60;;;;;;4128599;28;20358;-69
2021/01/14 06:04:55;;;;;;;4.10;2.08;;;25.30;55.30;;;;;;4135834;28;20376;-64
2021/01/14 06:07:07;;;;;;;3.60;2.17;;;25.30;55.10;;;;;;4131451;28;20084;-64
2021/01/14 06:09:12;;;;;;;2.97;2.00;;;25.30;54.90;;;;;;4134641;28;20088;-61
2021/01/14 06:11:23;;;;;;;3.58;2.00;;;25.30;54.90;;;;;;4133996;28;20295;-62
2021/01/14 06:13:41;;;;;;;3.58;2.00;;;25.10;54.70;;;;;;4130887;28;20152;-62
2021/01/14 06:15:43;;;;;;;2.60;2.03;;;;;;;;;;4118309;28;20038;-62
2021/01/14 06:17:45;;;;;;;2.70;2.10;;;;;;;;;;4133476;28;20754;-57
2021/01/14 06:19:47;;;;;;;5.03;2.20;;;25.10;54.90;;;;;;4133864;28;20511;-60
2021/01/14 06:21:55;;;;;;;5.72;2.40;;;25.00;54.40;;;;;;4132128;28;20026;-60
2021/01/14 06:23:58;;;;;;;6.50;2.28;;;25.00;54.80;;;;;;4133881;28;20172;-59
2021/01/14 06:26:00;;;;;;;2.67;2.10;;;24.90;54.90;;;;;;4137408;28;20052;-61
2021/01/14 06:28:03;;;;;;;4.75;2.28;;;24.90;54.80;;;;;;4126711;28;20113;-61
2021/01/14 06:30:08;;;;;;;4.97;2.30;;;24.80;54.70;;;;;;4133143;28;20034;-62
2021/01/14 06:32:14;;;;;;;5.00;2.20;;;24.80;55.00;;;;;;4128994;28;20041;-60
2021/01/14 06:34:21;;;;;;;4.63;2.42;;;24.80;55.20;;;;;;4127569;28;20776;-61
2021/01/14 06:36:33;;;;;;;5.82;2.58;;;24.80;55.40;;;;;;4128127;28;20084;-61
2021/01/14 06:38:43;;;;;;;3.17;2.20;;;24.80;55.40;;;;;;4129390;28;20033;-61
2021/01/14 06:40:52;;;;;;;2.95;2.30;;;24.80;55.40;;;;;;4129026;28;20084;-62
2021/01/14 06:42:58;;;;;;;3.63;2.50;;;24.80;55.40;;;;;;4129556;28;20060;-60
2021/01/14 06:45:01;;;;;;;5.05;2.40;;;24.80;55.30;;;;;;4131498;28;20026;-60
2021/01/14 06:47:14;;;;;;;4.25;2.67;;;24.80;55.50;;;;;;4131410;28;20034;-59
2021/01/14 06:49:19;;;;;;;5.15;2.60;;;24.70;55.60;;;;;;4133239;28;20154;-61
2021/01/14 06:51:24;;;;;;;4.07;2.70;;;24.70;55.90;;;;;;4133713;28;20029;-61
2021/01/14 06:53:27;;;;;;;4.30;2.53;;;24.70;56.40;;;;;;4132481;28;20034;-60
2021/01/14 06:55:36;;;;;;;4.85;2.65;;;24.70;57.00;;;;;;4132149;28;20052;-60
2021/01/14 06:57:38;;;;;;;4.15;2.50;;;;;;;;;;4134957;28;20045;-60
2021/01/14 06:59:40;;;;;;;5.10;2.40;;;;;;;;;;4132309;28;20496;-61
2021/01/14 07:01:46;;;;;;;3.35;2.50;;;;;;;;;;4129466;28;20077;-64
2021/01/14 07:03:58;;;;;;;5.22;2.80;;;;;;;;;;4132310;28;20090;-62
2021/01/14 07:06:03;;;;;;;4.53;2.47;;;;;;;;;;4131585;28;20039;-63
2021/01/14 07:08:29;;;;;;;4.15;2.33;;;;;;;;;;4132865;28;20037;-60
2021/01/14 07:10:32;;;;;;;3.42;2.40;;;;;;;;;;4132849;28;20068;-63
2021/01/14 07:12:35;;;;;;;2.78;2.00;;;;;;;;;;4136196;28;20026;-62
2021/01/14 07:14:47;;;;;;;4.45;2.55;;;24.60;56.40;;;;;;4134100;28;20522;-64
2021/01/14 07:16:59;;;;;;;4.95;2.50;;;24.50;56.70;;;;;;4131386;28;20400;-61
2021/01/14 07:19:02;;;;;;;5.22;2.28;;;24.40;56.30;;;;;;4133192;28;20030;-62
2021/01/14 07:21:24;;;;;;;5.68;2.70;;;24.40;56.30;;;;;;4131940;28;20348;-62
2021/01/14 07:23:28;;;;;;;6.40;3.15;;;24.40;56.60;;;;;;4130144;28;20108;-63
2021/01/14 07:25:30;;;;;;;4.53;2.40;;;24.40;56.90;;;;;;4133650;28;20136;-63
2021/01/14 07:27:36;;;;;;;5.70;2.67;;;24.40;57.10;;;;;;4132840;28;20029;-62
2021/01/14 07:29:43;;;;;;;5.90;3.00;;;24.40;57.40;;;;;;4133692;28;20041;-62
2021/01/14 07:31:55;;;;;;;5.38;2.85;;;24.40;57.50;;;;;;4137170;28;20407;-62
2021/01/14 07:33:57;;;;;;;5.20;3.40;;;24.40;57.40;;;;;;4131688;28;20030;-62
2021/01/14 07:36:22;;;;;;;7.57;3.50;;;24.40;57.80;;;;;;4134409;28;20482;-63
2021/01/14 07:38:24;;;;;;;5.13;3.70;;;24.30;58.00;;;;;;4131480;28;20523;-63
2021/01/14 07:40:31;;;;;;;8.07;4.18;;;24.30;58.20;;;;;;4129965;28;20041;-62
2021/01/14 07:42:34;;;;;;;8.65;4.38;;;24.30;58.50;;;;;;4133515;28;20129;-62
2021/01/14 07:44:38;;;;;;;6.72;4.32;;;24.30;58.40;;;;;;4133381;28;20216;-63
2021/01/14 07:46:41;;;;;;;7.22;4.03;;;24.30;58.70;;;;;;4133631;28;20045;-63
2021/01/14 07:48:44;;;;;;;8.25;4.22;;;24.30;58.60;;;;;;4131207;28;20061;-62
2021/01/14 07:50:57;;;;;;;7.00;4.18;;;24.20;58.50;;;;;;4133357;28;20491;-61
2021/01/14 07:52:59;;;;;;;;;;;24.20;58.60;;;;;;4133213;28;20056;-62
2021/01/14 07:55:09;;;;;;;8.30;4.13;;;24.20;58.90;;;;;;4130173;28;20399;-61
2021/01/14 07:57:12;;;;;;;7.20;4.15;;;24.20;59.50;;;;;;4132365;28;20041;-60
2021/01/14 07:59:25;;;;;;;8.15;4.63;;;24.20;59.60;;;;;;4132200;28;20148;-61
2021/01/14 08:01:27;;;;;;;11.15;4.30;;;24.20;59.60;;;;;;4130805;28;20060;-62
2021/01/14 08:03:40;;;;;;;8.40;4.57;;;24.20;59.50;;;;;;4133023;28;20096;-61
2021/01/14 08:05:42;;;;;;;7.72;4.60;;;24.20;59.50;;;;;;4133374;28;20038;-60
2021/01/14 08:07:44;;;;;;;7.85;4.50;;;24.10;59.30;;;;;;4132175;28;20046;-59
2021/01/14 08:09:49;;;;;;;7.78;4.65;;;24.10;59.50;;;;;;4132007;28;20030;-60
2021/01/14 08:11:51;;;;;;;8.77;4.78;;;24.10;59.30;;;;;;4128761;28;20049;-63
2021/01/14 08:14:02;;;;;;;10.07;5.25;;;24.00;59.20;;;;;;4132037;28;20034;-59
2021/01/14 08:16:04;;;;;;;10.18;5.90;;;24.00;59.30;;;;;;4134543;28;20034;-59
2021/01/14 08:18:13;;;;;;;9.25;5.80;;;24.00;59.30;;;;;;4135258;28;20280;-68
2021/01/14 08:20:17;;;;;;;8.10;5.43;;;24.00;59.20;;;;;;4133104;28;20041;-66
2021/01/14 08:22:19;;;;;;;9.63;5.25;;;24.00;59.50;;;;;;4131394;28;20132;-68
2021/01/14 08:24:46;;;;;;;9.23;5.65;;;24.00;59.30;;;;;;4130131;28;20486;-60
2021/01/14 08:26:53;;;;;;;8.85;5.35;;;23.90;59.20;;;;;;4134503;28;20074;-62
2021/01/14 08:29:02;;;;;;;9.23;5.88;;;23.90;58.90;;;;;;4134353;28;20601;-61
2021/01/14 08:31:04;;;;;;;9.27;5.28;;;23.90;58.70;;;;;;4127416;28;20026;-64
2021/01/14 08:33:08;;;;;;;6.20;4.03;;;23.90;58.80;;;;;;4129663;28;20463;-62
2021/01/14 08:35:23;;;;;;;9.13;5.00;;;23.90;59.50;;;;;;4133394;28;20065;-62
2021/01/14 08:37:38;;;;;;;8.57;4.72;;;24.00;60.30;;;;;;4130512;28;20553;-61
2021/01/14 08:39:44;;;;;;;9.05;4.85;;;24.20;61.10;;;;;;4132369;28;20057;-66
2021/01/14 08:41:49;;;;;;;9.65;5.43;;;24.30;61.30;;;;;;4130230;28;20038;-66
2021/01/14 08:43:52;;;;;;;10.98;4.80;;;24.40;61.40;;;;;;4132654;28;20384;-66
2021/01/14 08:45:55;;;;;;;8.13;4.45;;;24.40;61.50;;;;;;4135884;28;20050;-60
2021/01/14 08:48:03;;;;;;;6.90;4.00;;;24.50;61.60;;;;;;4132060;28;20038;-65
2021/01/14 08:50:06;;;;;;;6.03;3.85;;;24.70;62.50;;;;;;4133050;28;20385;-64
2021/01/14 08:52:10;;;;;;;9.63;4.30;;;24.80;61.90;;;;;;4132485;28;20040;-66
2021/01/14 08:54:13;;;;;;;9.40;4.03;;;24.80;61.90;;;;;;4133304;28;20550;-66
2021/01/14 08:56:18;;;;;;;7.88;4.25;;;24.90;62.00;;;;;;4133454;28;20140;-66
2021/01/14 08:58:21;;;;;;;7.63;3.92;;;25.00;62.00;;;;;;4132087;28;20033;-66
2021/01/14 09:00:27;;;;;;;7.18;4.22;;;25.10;62.00;;;;;;4131150;28;20095;-66
2021/01/14 09:02:29;;;;;;;11.02;4.22;;;25.20;62.10;;;;;;4128807;28;20060;-65
2021/01/14 09:04:32;;;;;;;8.40;4.43;;;25.30;62.30;;;;;;4130072;28;20280;-64
2021/01/14 09:06:38;;;;;;;7.85;4.03;;;25.30;62.20;;;;;;4131116;28;20380;-64
2021/01/14 09:08:41;;;;;;;8.85;4.20;;;25.40;62.60;;;;;;4133555;28;20033;-67
2021/01/14 09:10:47;;;;;;;8.98;4.50;;;;;;;;;;4127386;28;20357;-66
2021/01/14 09:12:49;;;;;;;6.78;4.13;;;25.50;62.60;;;;;;4129135;28;20038;-65
2021/01/14 09:14:51;;;;;;;8.15;4.15;;;25.60;62.70;;;;;;4128419;28;20038;-65
2021/01/14 09:16:53;;;;;;;13.88;5.40;;;25.60;62.70;;;;;;4129993;28;20144;-62
2021/01/14 09:18:55;;;;;;;12.98;5.10;;;25.70;63.10;;;;;;4131069;28;20471;-63
2021/01/14 09:20:58;;;;;;;13.40;5.33;;;25.80;64.30;;;;;;4128340;28;20968;-65
2021/01/14 09:23:19;;;;;;;11.02;5.03;;;25.80;64.20;;;;;;4132236;28;20283;-65
2021/01/14 09:25:34;;;;;;;12.95;4.95;;;25.90;64.00;;;;;;4130153;28;20034;-65
2021/01/14 09:27:37;;;;;;;17.80;5.50;;;26.00;64.00;;;;;;4129954;28;20081;-64
2021/01/14 09:29:39;;;;;;;11.60;4.60;;;26.00;63.90;;;;;;4130872;28;21491;-64
2021/01/14 09:31:42;;;;;;;16.15;4.95;;;26.10;63.90;;;;;;4129777;28;20049;-59
2021/01/14 09:33:44;;;;;;;;;;;26.10;63.80;;;;;;4134251;28;20501;-60
2021/01/14 09:35:58;;;;;;;11.73;4.20;;;26.20;63.80;;;;;;4131954;28;19968;-61
2021/01/14 09:38:00;;;;;;;8.63;4.25;;;26.20;63.70;;;;;;4129685;28;20034;-60
2021/01/14 09:40:12;;;;;;;12.23;4.15;;;26.30;63.70;;;;;;4132029;28;20065;-59
2021/01/14 09:42:18;;;;;;;10.27;4.25;;;26.30;63.70;;;;;;4133955;28;20156;-60
2021/01/14 09:44:21;;;;;;;17.15;4.97;;;26.40;63.70;;;;;;4134086;28;20458;-58
2021/01/14 09:46:34;;;;;;;13.80;4.32;;;26.40;63.70;;;;;;4131916;28;20128;-62
2021/01/14 09:48:38;;;;;;;14.25;4.95;;;26.40;63.80;;;;;;4129685;28;20236;-61
2021/01/14 09:50:43;;;;;;;10.60;4.63;;;26.50;63.80;;;;;;4129353;28;20434;-60
2021/01/14 09:52:46;;;;;;;9.68;4.00;;;26.50;63.90;;;;;;4127248;28;20612;-63
2021/01/14 09:54:48;;;;;;;13.55;4.93;;;26.60;63.90;;;;;;4128041;28;20070;-61
2021/01/14 09:57:00;;;;;;;9.70;4.10;;;26.60;64.00;;;;;;4128649;28;20038;-63
2021/01/14 09:59:23;;;;;;;8.27;4.10;;;26.70;63.90;;;;;;4131916;28;20374;-66
2021/01/14 10:01:32;;;;;;;9.97;3.90;;;26.70;63.90;;;;;;4132055;28;20046;-63
2021/01/14 10:03:36;;;;;;;14.10;3.75;;;26.70;63.70;;;;;;4131748;28;20365;-60
2021/01/14 10:05:38;;;;;;;8.35;4.38;;;26.80;63.70;;;;;;4123836;28;20052;-61
2021/01/14 10:07:46;;;;;;;7.93;3.50;;;26.80;63.70;;;;;;4128358;28;20054;-61
2021/01/14 10:09:53;;;;;;;11.65;4.03;;;26.80;63.60;;;;;;4127384;28;20165;-61
2021/01/14 10:11:55;;;;;;;10.05;3.97;;;;;;;;;;4130704;28;20819;-60
2021/01/14 10:13:57;;;;;;;8.63;3.70;;;;;;;;;;4127801;28;20044;-59
2021/01/14 10:16:12;;;;;;;9.55;4.15;;;;;;;;;;4129216;28;20057;-59
2021/01/14 10:18:42;;;;;;;9.32;3.70;;;;;;;;;;4130434;28;20037;-61
2021/01/14 10:20:44;;;;;;;8.85;3.78;;;;;;;;;;4127257;28;20535;-60
2021/01/14 10:22:51;;;;;;;11.90;3.78;;;;;;;;;;4129155;28;20602;-60
2021/01/14 10:25:04;;;;;;;8.95;4.25;;;;;;;;;;4128837;28;20045;-61
2021/01/14 10:27:13;;;;;;;;;;;26.80;63.50;;;;;;4129631;28;20492;-63
2021/01/14 10:29:41;;;;;;;13.77;3.70;;;27.10;63.70;;;;;;4128610;28;20370;-64
2021/01/14 10:31:44;;;;;;;8.55;3.80;;;27.10;63.40;;;;;;4127831;28;20041;-62
2021/01/14 10:33:55;;;;;;;;;;;27.10;63.30;;;;;;4132969;28;20049;-61
2021/01/14 10:35:57;;;;;;;8.93;3.10;;;27.20;63.20;;;;;;4129589;28;19984;-61
2021/01/14 10:38:14;;;;;;;9.95;3.25;;;27.20;63.20;;;;;;4124221;28;20038;-64
2021/01/14 10:40:22;;;;;;;6.97;3.28;;;27.20;63.20;;;;;;4124811;28;20646;-61
2021/01/14 10:42:36;;;;;;;6.93;3.42;;;27.20;63.10;;;;;;4128842;28;20041;-61
2021/01/14 10:44:57;;;;;;;9.88;3.67;;;27.30;63.10;;;;;;4129830;28;20502;-62
2021/01/14 10:46:59;;;;;;;10.13;3.25;;;;;;;;;;4125793;28;20474;-60
2021/01/14 10:49:12;;;;;;;11.73;3.95;;;;;;;;;;4127216;28;20318;-61
2021/01/14 10:51:14;;;;;;;8.00;3.58;;;;;;;;;;4133067;28;20585;-62
2021/01/14 10:53:29;;;;;;;8.57;3.22;;;;;;;;;;4130236;28;20156;-63
2021/01/14 10:55:32;;;;;;;6.82;3.00;;;;;;;;;;4133917;28;20123;-62
2021/01/14 10:57:50;;;;;;;8.10;3.47;;;;;;;;;;4138326;28;20036;-61
2021/01/14 10:59:52;;;;;;;6.13;3.20;;;;;;;;;;4130408;28;20046;-64
2021/01/14 11:02:09;;;;;;;10.90;2.92;;;;;;;;;;4134577;28;20160;-60
2021/01/14 11:04:11;;;;;;;4.32;2.80;;;;;;;;;;4132438;28;20037;-59
2021/01/14 11:06:27;;;;;;;7.93;3.20;;;;;;;;;;4133699;28;20084;-59
2021/01/14 11:08:39;;;;;;;6.38;2.72;;;;;;;;;;4131192;28;20371;-61
2021/01/14 11:10:41;;;;;;;8.52;2.13;;;;;;;;;;4136042;28;20034;-62
2021/01/14 11:13:03;;;;;;;4.85;2.50;;;;;;;;;;4134177;28;20037;-61
2021/01/14 11:15:06;;;;;;;5.82;2.35;;;;;;;;;;4134876;28;20041;-61